createdAt,value
2023-01-04T00:01:07.615Z,4.66
2023-01-04T00:03:34.309Z,4.68
2023-01-04T00:06:02.252Z,4.68
2023-01-04T00:08:29.160Z,4.63
2023-01-04T00:11:03.923Z,4.66
2023-01-04T00:13:30.781Z,4.66
2023-01-04T00:16:02.488Z,4.63
2023-01-04T00:18:34.292Z,4.63
2023-01-04T00:21:11.335Z,4.56
2023-01-04T00:23:41.812Z,4.49
2023-01-04T00:26:16.150Z,4.55
2023-01-04T00:28:44.833Z,4.58
2023-01-04T00:31:15.353Z,4.55
2023-01-04T00:33:41.976Z,4.51
2023-01-04T00:36:10.264Z,4.48
2023-01-04T00:38:37.147Z,4.41
2023-01-04T00:41:03.948Z,4.40
2023-01-04T00:43:30.444Z,4.42
2023-01-04T00:45:57.001Z,4.53
2023-01-04T00:48:23.582Z,4.49
2023-01-04T00:50:50.126Z,4.50
2023-01-04T00:53:17.523Z,4.49
2023-01-04T00:55:44.074Z,4.55
2023-01-04T00:58:10.650Z,4.61
2023-01-04T01:00:37.281Z,4.50
2023-01-04T01:03:04.420Z,4.53
2023-01-04T01:05:31.323Z,4.52
2023-01-04T01:07:57.787Z,4.57
2023-01-04T01:10:24.528Z,4.50
2023-01-04T01:12:51.040Z,4.43
2023-01-04T01:15:17.848Z,4.50
2023-01-04T01:17:44.635Z,4.55
2023-01-04T01:20:11.215Z,4.55
2023-01-04T01:22:37.772Z,4.58
2023-01-04T01:25:04.717Z,4.61
2023-01-04T01:27:31.175Z,4.64
2023-01-04T01:29:57.646Z,4.60
2023-01-04T01:32:24.143Z,4.62
2023-01-04T01:34:50.613Z,4.66
2023-01-04T01:37:17.079Z,4.67
2023-01-04T01:39:43.564Z,4.71
2023-01-04T01:42:21.047Z,4.69
2023-01-04T01:44:54.859Z,4.67
2023-01-04T01:47:22.982Z,4.78
2023-01-04T01:49:50.936Z,4.82
2023-01-04T01:52:18.840Z,4.83
2023-01-04T01:54:47.555Z,4.83
2023-01-04T01:57:20.017Z,4.85
2023-01-04T01:59:47.212Z,4.89
2023-01-04T02:02:13.737Z,4.85
2023-01-04T02:04:42.261Z,4.93
2023-01-04T02:07:08.716Z,4.95
2023-01-04T02:09:35.209Z,5.02
2023-01-04T02:12:01.672Z,5.05
2023-01-04T02:14:28.202Z,5.06
2023-01-04T02:17:24.055Z,5.09
2023-01-04T02:20:16.497Z,5.07
2023-01-04T02:22:48.897Z,5.08
2023-01-04T02:25:36.439Z,5.04
2023-01-04T02:28:41.458Z,4.94
2023-01-04T02:31:10.829Z,4.91
2023-01-04T02:33:44.436Z,4.85
2023-01-04T02:36:14.312Z,4.92
2023-01-04T02:38:55.399Z,4.91
2023-01-04T02:41:27.953Z,4.97
2023-01-04T02:44:17.122Z,4.94
2023-01-04T02:47:02.549Z,5.04
2023-01-04T02:49:47.768Z,5.09
2023-01-04T02:52:14.248Z,5.14
2023-01-04T02:54:40.734Z,5.16
2023-01-04T02:57:24.782Z,5.22
2023-01-04T02:59:56.176Z,5.28
2023-01-04T03:03:19.946Z,5.25
2023-01-04T03:06:15.998Z,5.21
2023-01-04T03:08:56.868Z,5.26
2023-01-04T03:11:42.014Z,5.26
2023-01-04T03:14:31.833Z,5.22
2023-01-04T03:16:58.008Z,5.15
2023-01-04T03:19:43.134Z,5.20
2023-01-04T03:22:29.562Z,5.19
2023-01-04T03:25:14.668Z,5.23
2023-01-04T03:27:59.689Z,5.21
2023-01-04T03:30:46.102Z,5.17
2023-01-04T03:33:31.136Z,5.21
2023-01-04T03:36:28.353Z,5.22
2023-01-04T03:39:23.191Z,5.26
2023-01-04T03:42:48.834Z,5.22
2023-01-04T03:45:39.409Z,5.24
2023-01-04T03:48:33.199Z,5.21
2023-01-04T03:51:09.227Z,5.23
2023-01-04T03:53:51.405Z,5.25
2023-01-04T03:56:18.051Z,5.21
2023-01-04T03:58:44.565Z,5.21
2023-01-04T04:01:11.193Z,5.18
2023-01-04T04:03:56.432Z,5.22
2023-01-04T04:06:41.443Z,5.29
2023-01-04T04:09:07.900Z,5.21
2023-01-04T04:11:34.373Z,5.25
2023-01-04T04:14:00.912Z,5.27
2023-01-04T04:16:27.744Z,5.26
2023-01-04T04:18:54.325Z,5.26
2023-01-04T04:21:21.111Z,5.21
2023-01-04T04:23:47.691Z,5.26
2023-01-04T04:26:14.311Z,5.33
2023-01-04T04:28:40.796Z,5.31
2023-01-04T04:31:07.630Z,5.26
2023-01-04T04:33:34.112Z,5.36
2023-01-04T04:36:00.577Z,5.36
2023-01-04T04:38:27.046Z,5.36
2023-01-04T04:41:12.058Z,5.32
2023-01-04T04:43:38.543Z,5.35
2023-01-04T04:46:05.208Z,5.35
2023-01-04T04:48:31.731Z,5.45
2023-01-04T04:50:58.206Z,5.34
2023-01-04T04:53:24.698Z,5.36
2023-01-04T04:55:52.016Z,5.35
2023-01-04T04:58:18.492Z,5.39
2023-01-04T05:00:45.038Z,5.44
2023-01-04T05:03:11.644Z,5.45
2023-01-04T05:05:38.215Z,5.43
2023-01-04T05:08:04.879Z,5.45
2023-01-04T05:10:31.366Z,5.45
2023-01-04T05:13:00.471Z,5.46
2023-01-04T05:15:28.512Z,5.48
2023-01-04T05:17:55.016Z,5.45
2023-01-04T05:20:21.487Z,5.42
2023-01-04T05:22:47.949Z,5.47
2023-01-04T05:25:14.520Z,5.47
2023-01-04T05:27:41.036Z,5.51
2023-01-04T05:30:27.390Z,5.49
2023-01-04T05:32:53.840Z,5.46
2023-01-04T05:35:20.347Z,5.49
2023-01-04T05:37:46.829Z,5.59
2023-01-04T05:40:13.365Z,5.55
2023-01-04T05:42:39.841Z,5.53
2023-01-04T05:45:06.864Z,5.58
2023-01-04T05:47:33.331Z,5.56
2023-01-04T05:49:59.811Z,5.57
2023-01-04T05:52:26.396Z,5.51
2023-01-04T05:54:52.877Z,5.56
2023-01-04T05:57:19.703Z,5.52
2023-01-04T05:59:46.192Z,5.57
2023-01-04T06:02:17.052Z,5.62
2023-01-04T06:04:43.624Z,5.53
2023-01-04T06:07:10.086Z,5.54
2023-01-04T06:09:36.584Z,5.54
2023-01-04T06:12:03.075Z,5.62
2023-01-04T06:14:29.593Z,5.62
2023-01-04T06:16:56.086Z,5.65
2023-01-04T06:19:22.600Z,5.64
2023-01-04T06:21:49.057Z,5.60
2023-01-04T06:24:15.525Z,5.62
2023-01-04T06:26:42.077Z,5.65
2023-01-04T06:29:08.574Z,5.73
2023-01-04T06:31:35.031Z,5.74
2023-01-04T06:34:01.560Z,5.78
2023-01-04T06:36:28.148Z,5.86
2023-01-04T06:38:56.578Z,5.90
2023-01-04T06:41:23.081Z,5.94
2023-01-04T06:43:49.565Z,6.04
2023-01-04T06:46:16.071Z,6.08
2023-01-04T06:48:42.865Z,6.09
2023-01-04T06:51:09.360Z,6.13
2023-01-04T06:53:35.847Z,6.14
2023-01-04T06:56:02.340Z,6.26
2023-01-04T06:58:28.804Z,6.23
2023-01-04T07:00:55.434Z,6.32
2023-01-04T07:03:22.587Z,6.39
2023-01-04T07:05:49.145Z,6.40
2023-01-04T07:08:15.922Z,6.48
2023-01-04T07:10:42.622Z,6.55
2023-01-04T07:13:09.190Z,6.56
2023-01-04T07:15:39.538Z,6.59
2023-01-04T07:18:07.268Z,6.57
2023-01-04T07:20:33.743Z,6.54
2023-01-04T07:23:00.222Z,6.54
2023-01-04T07:25:26.705Z,6.67
2023-01-04T07:27:53.577Z,6.62
2023-01-04T07:30:20.883Z,6.65
2023-01-04T07:32:47.738Z,6.56
2023-01-04T07:35:14.481Z,6.60
2023-01-04T07:37:42.843Z,6.63
2023-01-04T07:40:10.030Z,6.63
2023-01-04T07:42:36.517Z,6.70
2023-01-04T07:45:03.972Z,6.67
2023-01-04T07:47:30.468Z,6.75
2023-01-04T07:49:56.999Z,6.74
2023-01-04T07:52:23.669Z,6.72
2023-01-04T07:54:50.240Z,6.82
2023-01-04T07:57:16.705Z,6.85
2023-01-04T07:59:43.240Z,6.91
2023-01-04T08:02:13.034Z,7.04
2023-01-04T08:04:39.668Z,7.01
2023-01-04T08:07:06.449Z,7.16
2023-01-04T08:09:32.994Z,7.16
2023-01-04T08:11:59.635Z,7.30
2023-01-04T08:14:26.252Z,7.37
2023-01-04T08:16:52.833Z,7.44
2023-01-04T08:19:20.781Z,7.43
2023-01-04T08:21:47.363Z,7.53
2023-01-04T08:24:18.084Z,7.48
2023-01-04T08:26:44.887Z,7.56
2023-01-04T08:29:11.484Z,7.62
2023-01-04T08:31:38.109Z,7.64
2023-01-04T08:34:05.788Z,7.68
2023-01-04T08:36:34.150Z,7.66
2023-01-04T08:39:09.642Z,7.76
2023-01-04T08:42:01.091Z,7.73
2023-01-04T08:44:31.605Z,7.76
2023-01-04T08:46:58.909Z,7.80
2023-01-04T08:49:25.562Z,7.84
2023-01-04T08:51:52.097Z,7.86
2023-01-04T08:54:18.627Z,7.86
2023-01-04T08:56:45.098Z,7.98
2023-01-04T08:59:11.816Z,7.89
2023-01-04T09:01:39.285Z,7.95
2023-01-04T09:04:05.921Z,7.99
2023-01-04T09:06:32.402Z,7.92
2023-01-04T09:08:58.906Z,8.06
2023-01-04T09:11:25.883Z,7.99
2023-01-04T09:14:02.466Z,8.04
2023-01-04T09:16:33.145Z,8.07
2023-01-04T09:18:59.709Z,8.14
2023-01-04T09:21:26.204Z,8.09
2023-01-04T09:23:52.699Z,8.21
2023-01-04T09:26:23.630Z,8.14
2023-01-04T09:28:50.710Z,8.18
2023-01-04T09:31:18.892Z,8.21
2023-01-04T09:34:13.369Z,8.34
2023-01-04T09:36:31.987Z,8.33
2023-01-04T09:38:58.457Z,8.35
2023-01-04T09:41:29.391Z,8.37
2023-01-04T09:43:59.220Z,8.36
2023-01-04T09:46:44.267Z,8.42
2023-01-04T09:49:18.094Z,8.35
2023-01-04T09:51:55.058Z,8.29
2023-01-04T09:54:22.047Z,8.32
2023-01-04T09:56:50.944Z,8.30
2023-01-04T09:59:17.479Z,8.22
2023-01-04T10:01:53.805Z,8.25
2023-01-04T10:04:49.204Z,8.24
2023-01-04T10:07:25.427Z,8.24
2023-01-04T10:09:51.904Z,8.25
2023-01-04T10:12:43.626Z,8.31
2023-01-04T10:15:41.291Z,8.30
2023-01-04T10:21:31.930Z,8.38
2023-01-04T10:24:02.034Z,8.39
2023-01-04T10:26:38.748Z,8.39
2023-01-04T10:29:30.104Z,8.44
2023-01-04T10:32:10.319Z,8.37
2023-01-04T10:34:44.185Z,8.40
2023-01-04T10:37:40.184Z,8.42
2023-01-04T10:40:13.132Z,8.41
2023-01-04T10:42:51.682Z,8.35
2023-01-04T10:45:36.162Z,8.35
2023-01-04T10:48:10.622Z,8.36
2023-01-04T10:50:48.076Z,8.36
2023-01-04T10:53:26.281Z,8.33
2023-01-04T10:56:26.068Z,8.38
2023-01-04T10:58:52.217Z,8.38
2023-01-04T11:01:23.646Z,8.37
2023-01-04T11:03:57.055Z,8.42
2023-01-04T11:06:24.196Z,8.43
2023-01-04T11:08:59.171Z,8.45
2023-01-04T11:11:27.669Z,8.52
2023-01-04T11:13:54.463Z,8.50
2023-01-04T11:16:21.020Z,8.50
2023-01-04T11:18:48.560Z,8.44
2023-01-04T11:21:15.100Z,8.50
2023-01-04T11:23:41.584Z,8.52
2023-01-04T11:26:19.990Z,8.54
2023-01-04T11:28:54.238Z,8.51
2023-01-04T11:31:35.800Z,8.58
2023-01-04T11:34:03.025Z,8.58
2023-01-04T11:36:39.447Z,8.62
2023-01-04T11:39:26.183Z,8.61
2023-01-04T11:42:05.989Z,8.72
2023-01-04T11:44:33.150Z,8.71
2023-01-04T11:47:19.397Z,8.68
2023-01-04T11:49:45.977Z,8.73
2023-01-04T11:52:27.422Z,8.70
2023-01-04T11:54:54.009Z,8.71
2023-01-04T11:57:20.944Z,8.72
2023-01-04T12:00:24.545Z,8.79
2023-01-04T12:03:01.121Z,8.83
2023-01-04T12:05:30.310Z,8.79
2023-01-04T12:07:57.958Z,8.85
2023-01-04T12:10:26.949Z,8.80
2023-01-04T12:12:54.707Z,8.79
2023-01-04T12:15:44.539Z,8.80
2023-01-04T12:18:15.540Z,8.89
2023-01-04T12:20:42.009Z,8.87
2023-01-04T12:23:09.824Z,8.82
2023-01-04T12:26:00.350Z,8.88
2023-01-04T12:28:39.717Z,8.88
2023-01-04T12:31:22.082Z,8.89
2023-01-04T12:33:56.330Z,8.96
2023-01-04T12:36:37.902Z,8.87
2023-01-04T12:39:16.443Z,8.99
2023-01-04T12:42:00.640Z,8.88
2023-01-04T12:44:36.221Z,8.94
2023-01-04T12:47:47.859Z,8.90
2023-01-04T12:50:23.171Z,8.93
2023-01-04T12:55:43.806Z,8.95
2023-01-04T12:58:51.172Z,9.05
2023-01-04T13:01:28.420Z,9.06
2023-01-04T13:04:04.207Z,9.08
2023-01-04T13:06:32.327Z,9.08
2023-01-04T13:08:59.163Z,9.11
2023-01-04T13:11:46.031Z,9.10
2023-01-04T13:14:43.780Z,9.11
2023-01-04T13:17:18.654Z,9.17
2023-01-04T13:19:45.825Z,9.19
2023-01-04T13:22:28.860Z,9.18
2023-01-04T13:24:57.532Z,9.21
2023-01-04T13:27:24.114Z,9.22
2023-01-04T13:29:51.081Z,9.25
2023-01-04T13:32:25.167Z,9.17
2023-01-04T13:35:01.055Z,9.19
2023-01-04T13:37:31.924Z,9.23
2023-01-04T13:40:17.297Z,9.25
2023-01-04T13:42:51.779Z,9.32
2023-01-04T13:45:30.219Z,9.26
2023-01-04T13:47:58.018Z,9.26
2023-01-04T13:50:43.933Z,9.29
2023-01-04T13:53:21.184Z,9.29
2023-01-04T13:55:55.281Z,9.39
2023-01-04T13:58:26.189Z,9.41
2023-01-04T14:01:17.244Z,9.44
2023-01-04T14:03:46.444Z,9.41
2023-01-04T14:06:33.086Z,9.42
2023-01-04T14:09:05.291Z,9.41
2023-01-04T14:11:53.899Z,9.44
2023-01-04T14:14:53.727Z,9.49
2023-01-04T14:17:27.619Z,9.51
2023-01-04T14:19:58.468Z,9.50
2023-01-04T14:22:37.739Z,9.51
2023-01-04T14:25:41.869Z,9.56
2023-01-04T14:28:24.799Z,9.63
2023-01-04T14:31:03.667Z,9.60
2023-01-04T14:33:36.222Z,9.60
2023-01-04T14:36:06.598Z,9.62
2023-01-04T14:38:36.126Z,9.66
2023-01-04T14:41:17.658Z,9.69
2023-01-04T14:43:46.206Z,9.75
2023-01-04T14:46:17.248Z,9.88
2023-01-04T14:48:43.945Z,9.86
2023-01-04T14:51:12.363Z,9.93
2023-01-04T14:53:38.858Z,10.02
2023-01-04T14:56:05.545Z,9.99
2023-01-04T14:58:32.018Z,10.09
2023-01-04T15:00:58.560Z,10.13
2023-01-04T15:03:25.182Z,10.03
2023-01-04T15:05:51.686Z,10.02
2023-01-04T15:08:18.155Z,10.14
2023-01-04T15:10:46.139Z,10.14
2023-01-04T15:13:12.645Z,10.23
2023-01-04T15:15:42.174Z,10.19
2023-01-04T15:18:09.118Z,10.20
2023-01-04T15:20:35.686Z,10.14
2023-01-04T15:23:02.189Z,10.20
2023-01-04T15:25:29.743Z,10.15
2023-01-04T15:27:56.279Z,10.16
2023-01-04T15:30:22.762Z,10.23
2023-01-04T15:32:49.250Z,10.18
2023-01-04T15:35:18.608Z,10.24
2023-01-04T15:37:45.146Z,10.29
2023-01-04T15:40:15.815Z,10.33
2023-01-04T15:43:00.959Z,10.44
2023-01-04T15:45:35.894Z,10.33
2023-01-04T15:48:06.626Z,10.26
2023-01-04T15:50:37.910Z,10.25
2023-01-04T15:53:05.305Z,10.24
2023-01-04T15:55:36.294Z,10.32
2023-01-04T15:58:04.181Z,10.29
2023-01-04T16:00:30.658Z,10.44
2023-01-04T16:02:57.294Z,10.45
2023-01-04T16:05:23.841Z,10.37
2023-01-04T16:07:50.326Z,10.34
2023-01-04T16:10:16.928Z,10.45
2023-01-04T16:12:44.263Z,10.35
2023-01-04T16:15:14.593Z,10.44
2023-01-04T16:17:41.406Z,10.38
2023-01-04T16:20:08.279Z,10.42
2023-01-04T16:22:34.810Z,10.39
2023-01-04T16:25:16.600Z,10.38
2023-01-04T16:27:43.980Z,10.35
2023-01-04T16:30:13.832Z,10.34
2023-01-04T16:32:41.877Z,10.44
2023-01-04T16:35:08.888Z,10.46
2023-01-04T16:37:35.477Z,10.49
2023-01-04T16:40:06.689Z,10.47
2023-01-04T16:42:37.297Z,10.56
2023-01-04T16:45:03.981Z,10.49
2023-01-04T16:47:37.423Z,10.49
2023-01-04T16:50:04.209Z,10.45
2023-01-04T16:52:30.803Z,10.46
2023-01-04T16:54:57.328Z,10.59
2023-01-04T16:57:24.307Z,10.54
2023-01-04T16:59:50.824Z,10.52
2023-01-04T17:02:17.422Z,10.55
2023-01-04T17:04:43.992Z,10.54
2023-01-04T17:07:11.291Z,10.55
2023-01-04T17:09:41.058Z,10.46
2023-01-04T17:15:23.796Z,10.45
2023-01-04T17:17:42.841Z,10.46
2023-01-04T17:20:09.503Z,10.52
2023-01-04T17:22:36.110Z,10.47
2023-01-04T17:25:03.505Z,10.45
2023-01-04T17:27:29.975Z,10.39
2023-01-04T17:29:56.470Z,10.56
2023-01-04T17:32:23.395Z,10.51
2023-01-04T17:34:50.090Z,10.46
2023-01-04T17:37:16.595Z,10.51
2023-01-04T17:39:43.152Z,10.50
2023-01-04T17:42:09.624Z,10.57
2023-01-04T17:44:36.144Z,10.48
2023-01-04T17:47:02.622Z,10.51
2023-01-04T17:49:32.031Z,10.49
2023-01-04T17:51:58.963Z,10.43
2023-01-04T17:54:25.584Z,10.51
2023-01-04T17:56:52.209Z,10.44
2023-01-04T17:59:18.737Z,10.41
2023-01-04T18:01:45.319Z,10.48
2023-01-04T18:04:11.928Z,10.39
2023-01-04T18:06:38.919Z,10.47
2023-01-04T18:09:06.485Z,10.44
2023-01-04T18:11:32.991Z,10.45
2023-01-04T18:13:59.750Z,10.40
2023-01-04T18:16:28.580Z,10.33
2023-01-04T18:18:56.191Z,10.37
2023-01-04T18:21:28.465Z,10.43
2023-01-04T18:29:32.808Z,10.43
2023-01-04T18:31:59.324Z,10.48
2023-01-04T18:34:28.676Z,10.51
2023-01-04T18:36:55.216Z,10.49
2023-01-04T18:39:21.786Z,10.45
2023-01-04T18:41:48.549Z,10.49
2023-01-04T18:47:02.300Z,10.38
2023-01-04T18:49:28.862Z,10.44
2023-01-04T18:51:55.326Z,10.33
2023-01-04T18:54:22.149Z,10.25
2023-01-04T18:56:48.724Z,10.28
2023-01-04T18:59:17.362Z,10.25
2023-01-04T19:01:45.179Z,10.33
2023-01-04T19:04:12.666Z,10.39
2023-01-04T19:06:40.040Z,10.44
2023-01-04T19:09:07.159Z,10.40
2023-01-04T19:11:33.846Z,10.37
2023-01-04T19:14:00.350Z,10.32
2023-01-04T19:16:30.826Z,10.33
2023-01-04T19:18:58.923Z,10.27
2023-01-04T19:21:25.756Z,10.22
2023-01-04T19:23:52.670Z,10.18
2023-01-04T19:26:19.226Z,10.22
2023-01-04T19:28:45.691Z,10.16
2023-01-04T19:31:12.282Z,10.15
2023-01-04T19:33:39.357Z,10.23
2023-01-04T19:36:08.905Z,10.22
2023-01-04T19:38:35.677Z,10.25
2023-01-04T19:41:02.433Z,10.25
2023-01-04T19:43:29.044Z,10.31
2023-01-04T19:45:55.620Z,10.25
2023-01-04T19:48:23.705Z,10.20
2023-01-04T19:51:01.734Z,10.16
2023-01-04T19:53:28.220Z,10.24
2023-01-04T19:55:57.723Z,10.30
2023-01-04T19:58:24.197Z,10.23
2023-01-04T20:00:54.563Z,10.28
2023-01-04T20:03:22.438Z,10.27
2023-01-04T20:05:49.612Z,10.28
2023-01-04T20:08:16.078Z,10.27
2023-01-04T20:10:42.561Z,10.30
2023-01-04T20:13:09.134Z,10.28
2023-01-04T20:15:39.371Z,10.32
2023-01-04T20:18:11.842Z,10.29
2023-01-04T20:20:44.040Z,10.22
2023-01-04T20:23:10.547Z,10.23
2023-01-04T20:25:44.856Z,10.23
2023-01-04T20:28:11.315Z,10.24
2023-01-04T20:30:37.918Z,10.30
2023-01-04T20:33:05.275Z,10.20
2023-01-04T20:35:31.757Z,10.17
2023-01-04T20:37:58.442Z,10.19
2023-01-04T20:40:25.559Z,10.28
2023-01-04T20:43:10.518Z,10.22
2023-01-04T20:45:43.664Z,10.18
2023-01-04T20:48:10.155Z,10.26
2023-01-04T20:50:36.639Z,10.10
2023-01-04T20:53:03.261Z,10.13
2023-01-04T20:55:29.919Z,10.02
2023-01-04T20:57:56.825Z,9.95
2023-01-04T21:00:23.389Z,9.87
2023-01-04T21:02:50.042Z,9.93
2023-01-04T21:05:16.827Z,9.93
2023-01-04T21:07:43.380Z,9.80
2023-01-04T21:10:09.881Z,9.68
2023-01-04T21:12:38.419Z,9.66
2023-01-04T21:15:05.079Z,9.59
2023-01-04T21:17:31.590Z,9.42
2023-01-04T21:19:58.069Z,9.44
2023-01-04T21:22:25.805Z,9.35
2023-01-04T21:24:52.269Z,9.30
2023-01-04T21:27:18.752Z,9.27
2023-01-04T21:29:45.243Z,9.20
2023-01-04T21:32:11.735Z,9.28
2023-01-04T21:34:38.347Z,9.23
2023-01-04T21:37:04.852Z,9.31
2023-01-04T21:39:31.335Z,9.30
2023-01-04T21:41:57.803Z,9.39
2023-01-04T21:44:24.270Z,9.36
2023-01-04T21:46:50.955Z,9.32
2023-01-04T21:49:17.487Z,9.29
2023-01-04T21:51:43.944Z,9.48
2023-01-04T21:54:10.398Z,9.46
2023-01-04T21:56:36.891Z,9.45
2023-01-04T21:59:03.382Z,9.44
2023-01-04T22:01:34.959Z,9.39
2023-01-04T22:04:02.063Z,9.37
2023-01-04T22:06:29.177Z,9.36
2023-01-04T22:08:55.753Z,9.31
2023-01-04T22:11:22.240Z,9.32
2023-01-04T22:13:50.264Z,9.42
2023-01-04T22:16:16.982Z,9.45
2023-01-04T22:18:48.240Z,9.45
2023-01-04T22:21:18.646Z,9.41
2023-01-04T22:23:44.986Z,9.42
2023-01-04T22:26:11.611Z,9.39
2023-01-04T22:28:38.781Z,9.37
2023-01-04T22:31:10.512Z,9.42
2023-01-04T22:33:37.341Z,9.47
2023-01-04T22:36:07.037Z,9.50
2023-01-04T22:38:35.433Z,9.54
2023-01-04T22:41:08.244Z,9.60
2023-01-04T22:43:35.410Z,9.49
2023-01-04T22:46:02.469Z,9.48
2023-01-04T22:48:29.044Z,9.44
2023-01-04T22:50:55.586Z,9.52
2023-01-04T22:53:22.074Z,9.43
2023-01-04T22:56:17.509Z,9.54
2023-01-04T22:58:35.748Z,9.49
2023-01-04T23:01:05.773Z,9.45
2023-01-04T23:03:33.291Z,9.32
2023-01-04T23:05:59.885Z,9.32
2023-01-04T23:08:28.741Z,9.28
2023-01-04T23:10:55.232Z,9.18
2023-01-04T23:13:21.695Z,9.16
2023-01-04T23:15:48.278Z,9.06
2023-01-04T23:18:14.835Z,9.08
2023-01-04T23:20:41.343Z,9.16
2023-01-04T23:23:07.809Z,9.09
2023-01-04T23:25:34.619Z,9.05
2023-01-04T23:28:01.078Z,9.11
2023-01-04T23:30:27.536Z,9.03
2023-01-04T23:32:54.261Z,9.15
2023-01-04T23:35:20.728Z,9.10
2023-01-04T23:37:47.190Z,9.10
2023-01-04T23:40:13.671Z,9.07
2023-01-04T23:42:40.136Z,9.09
2023-01-04T23:45:07.212Z,9.10
2023-01-04T23:47:33.688Z,9.17
2023-01-04T23:50:00.220Z,9.13
2023-01-04T23:52:26.690Z,9.10
2023-01-04T23:54:53.174Z,9.14
2023-01-04T23:57:19.639Z,9.10
2023-01-04T23:59:46.109Z,9.06
